createdAt,value
2023-04-29T00:00:15.062Z,26.13
2023-04-29T00:05:16.613Z,28.50
2023-04-29T00:10:18.310Z,34.70
2023-04-29T00:15:19.917Z,30.45
2023-04-29T00:20:21.491Z,28.20
2023-04-29T00:25:23.048Z,30.80
2023-04-29T00:30:24.525Z,31.27
2023-04-29T00:35:26.114Z,35.08
2023-04-29T00:40:28.790Z,25.77
2023-04-29T00:45:30.217Z,30.30
2023-04-29T00:50:31.677Z,29.05
2023-04-29T00:55:33.687Z,28.85
2023-04-29T01:00:35.152Z,25.70
2023-04-29T01:05:36.571Z,28.60
2023-04-29T01:10:57.214Z,37.45
2023-04-29T01:16:04.185Z,31.08
2023-04-29T01:21:05.909Z,25.38
2023-04-29T01:26:08.294Z,37.92
2023-04-29T01:31:25.015Z,25.27
2023-04-29T01:36:57.424Z,30.73
2023-04-29T01:42:33.553Z,32.83
2023-04-29T01:47:37.816Z,32.38
2023-04-29T01:52:39.459Z,32.92
2023-04-29T01:57:41.009Z,33.85
2023-04-29T02:02:42.542Z,34.92
2023-04-29T02:07:44.730Z,30.75
2023-04-29T02:12:46.465Z,28.23
2023-04-29T02:17:48.064Z,27.08
2023-04-29T02:22:49.602Z,26.67
2023-04-29T02:27:51.618Z,24.33
2023-04-29T02:32:53.222Z,26.52
2023-04-29T02:37:54.778Z,26.65
2023-04-29T02:42:56.151Z,30.17
2023-04-29T02:47:57.632Z,28.27
2023-04-29T02:52:59.201Z,26.35
2023-04-29T02:58:00.641Z,22.83
2023-04-29T03:03:02.209Z,28.52
2023-04-29T03:08:04.757Z,31.98
2023-04-29T03:13:06.403Z,26.60
2023-04-29T03:18:08.193Z,28.05
2023-04-29T03:23:09.720Z,27.15
2023-04-29T03:28:11.081Z,29.27
2023-04-29T03:33:12.579Z,25.65
2023-04-29T03:38:14.042Z,24.08
2023-04-29T03:43:15.599Z,26.10
2023-04-29T03:48:17.128Z,22.23
2023-04-29T03:53:18.734Z,24.02
2023-04-29T03:58:20.317Z,21.00
2023-04-29T04:03:22.963Z,22.58
2023-04-29T04:08:24.534Z,35.55
2023-04-29T04:13:25.950Z,26.65
2023-04-29T04:18:27.415Z,24.95
2023-04-29T04:23:28.866Z,20.92
2023-04-29T04:28:30.274Z,20.58
2023-04-29T04:33:32.361Z,24.33
2023-04-29T04:38:34.277Z,24.65
2023-04-29T04:43:36.024Z,23.30
2023-04-29T04:48:37.436Z,25.52
2023-04-29T04:53:40.234Z,25.20
2023-04-29T04:58:41.692Z,25.90
2023-04-29T05:03:43.246Z,22.63
2023-04-29T05:08:44.832Z,24.70
2023-04-29T05:13:46.811Z,22.50
2023-04-29T05:18:48.854Z,23.58
2023-04-29T05:23:50.530Z,18.35
2023-04-29T05:28:51.970Z,19.15
2023-04-29T05:33:53.387Z,22.40
2023-04-29T05:38:54.869Z,25.58
2023-04-29T05:43:56.294Z,22.35
2023-04-29T05:48:57.725Z,25.58
2023-04-29T05:54:01.992Z,26.33
2023-04-29T05:59:03.442Z,22.02
2023-04-29T06:04:05.189Z,26.17
2023-04-29T06:09:13.316Z,25.45
2023-04-29T06:14:18.028Z,22.63
2023-04-29T06:19:19.520Z,21.80
2023-04-29T06:24:21.197Z,14.65
2023-04-29T06:29:22.648Z,21.55
2023-04-29T06:34:24.159Z,23.20
2023-04-29T06:39:25.775Z,24.42
2023-04-29T06:44:27.648Z,22.92
2023-04-29T06:49:29.200Z,19.45
2023-04-29T06:54:30.888Z,23.85
2023-04-29T06:59:32.982Z,18.38
2023-04-29T07:04:34.846Z,22.00
2023-04-29T07:09:36.334Z,22.88
2023-04-29T07:14:38.044Z,19.73
2023-04-29T07:19:39.875Z,22.10
2023-04-29T07:24:41.591Z,26.40
2023-04-29T07:29:43.025Z,23.55
2023-04-29T07:34:44.607Z,16.92
2023-04-29T07:39:46.051Z,17.60
2023-04-29T07:44:47.561Z,21.02
2023-04-29T07:49:48.990Z,18.90
2023-04-29T07:54:50.501Z,17.95
2023-04-29T07:59:55.548Z,16.20
2023-04-29T08:04:57.459Z,15.82
2023-04-29T08:09:59.409Z,17.77
2023-04-29T08:15:00.908Z,16.70
2023-04-29T08:20:12.537Z,16.15
2023-04-29T08:25:14.055Z,18.30
2023-04-29T08:30:15.884Z,14.93
2023-04-29T08:35:17.400Z,11.23
2023-04-29T08:40:18.972Z,16.45
2023-04-29T08:45:25.230Z,16.58
2023-04-29T08:55:30.121Z,16.05
2023-04-29T09:00:33.023Z,10.35
2023-04-29T09:05:36.509Z,12.90
2023-04-29T09:10:47.688Z,13.57
2023-04-29T09:15:49.162Z,11.23
2023-04-29T09:20:50.598Z,12.57
2023-04-29T09:25:56.992Z,14.57
2023-04-29T09:30:58.509Z,11.15
2023-04-29T09:36:01.020Z,11.10
2023-04-29T09:41:12.042Z,7.10
2023-04-29T09:46:13.882Z,6.40
2023-04-29T09:51:16.191Z,7.18
2023-04-29T09:56:17.896Z,6.60
2023-04-29T10:01:22.003Z,7.00
2023-04-29T10:06:25.436Z,5.82
2023-04-29T10:11:27.535Z,8.10
2023-04-29T10:16:30.438Z,7.05
2023-04-29T10:21:34.069Z,9.75
2023-04-29T10:26:39.273Z,6.35
2023-04-29T10:31:43.177Z,5.27
2023-04-29T10:36:46.048Z,6.55
2023-04-29T10:41:47.542Z,8.45
2023-04-29T10:46:49.005Z,7.55
2023-04-29T10:51:50.950Z,8.25
2023-04-29T10:56:54.234Z,4.05
2023-04-29T11:01:55.864Z,8.45
2023-04-29T11:06:59.248Z,7.07
2023-04-29T11:12:06.059Z,8.82
2023-04-29T11:17:13.605Z,7.43
2023-04-29T11:22:26.206Z,8.00
2023-04-29T11:27:31.809Z,7.15
2023-04-29T11:32:33.373Z,10.52
2023-04-29T11:37:35.263Z,7.45
2023-04-29T11:42:47.621Z,4.40
2023-04-29T11:47:49.958Z,4.22
2023-04-29T11:52:51.559Z,6.00
2023-04-29T11:57:54.613Z,9.48
2023-04-29T12:02:56.224Z,5.85
2023-04-29T12:07:57.750Z,7.22
2023-04-29T12:13:00.208Z,6.63
2023-04-29T12:18:02.439Z,5.47
2023-04-29T12:23:26.718Z,6.10
2023-04-29T12:28:28.952Z,7.82
2023-04-29T12:33:30.754Z,7.60
2023-04-29T12:38:32.532Z,4.00
2023-04-29T12:43:34.082Z,5.85
2023-04-29T12:48:41.717Z,5.28
2023-04-29T12:53:43.461Z,4.68
2023-04-29T12:58:44.945Z,5.95
2023-04-29T13:03:47.102Z,5.22
2023-04-29T13:08:48.863Z,4.65
2023-04-29T13:13:50.269Z,4.18
2023-04-29T13:19:08.163Z,4.43
2023-04-29T13:24:13.837Z,8.10
2023-04-29T13:29:15.453Z,6.63
2023-04-29T13:34:17.203Z,3.42
2023-04-29T13:39:20.351Z,3.03
2023-04-29T13:44:31.327Z,5.72
2023-04-29T13:50:05.743Z,3.20
2023-04-29T13:55:26.370Z,4.00
2023-04-29T14:00:47.441Z,3.75
2023-04-29T14:05:42.328Z,3.60
2023-04-29T14:10:44.286Z,5.80
2023-04-29T14:15:45.787Z,2.20
2023-04-29T14:20:47.328Z,2.83
2023-04-29T14:25:48.812Z,3.60
2023-04-29T14:30:50.341Z,6.25
2023-04-29T14:35:52.022Z,7.68
2023-04-29T14:40:53.483Z,3.55
2023-04-29T14:45:56.503Z,5.43
2023-04-29T14:50:57.960Z,3.75
2023-04-29T14:55:59.456Z,6.78
2023-04-29T15:01:01.262Z,5.50
2023-04-29T15:06:03.955Z,5.28
2023-04-29T15:11:05.618Z,6.45
2023-04-29T15:16:07.815Z,6.90
2023-04-29T15:21:09.513Z,7.22
2023-04-29T15:26:11.093Z,7.03
2023-04-29T15:31:13.250Z,13.02
2023-04-29T15:36:15.154Z,7.75
2023-04-29T15:41:16.622Z,11.02
2023-04-29T15:46:18.927Z,8.90
2023-04-29T15:51:20.623Z,5.40
2023-04-29T15:56:22.154Z,7.25
2023-04-29T16:01:23.801Z,7.30
2023-04-29T16:06:25.580Z,6.20
2023-04-29T16:11:27.719Z,6.40
2023-04-29T16:16:30.703Z,6.60
2023-04-29T16:21:32.904Z,8.00
2023-04-29T16:26:35.703Z,6.40
2023-04-29T16:31:38.314Z,5.90
2023-04-29T16:36:39.763Z,3.78
2023-04-29T16:41:41.639Z,4.40
2023-04-29T16:46:43.295Z,4.30
2023-04-29T16:51:44.866Z,3.97
2023-04-29T16:56:47.473Z,3.00
2023-04-29T17:01:50.411Z,3.67
2023-04-29T17:06:51.956Z,4.45
2023-04-29T17:11:53.498Z,2.97
2023-04-29T17:16:55.087Z,5.00
2023-04-29T17:21:56.925Z,3.05
2023-04-29T17:26:59.746Z,4.82
2023-04-29T17:32:09.957Z,3.00
2023-04-29T17:37:11.549Z,4.88
2023-04-29T17:42:13.089Z,3.97
2023-04-29T17:47:16.224Z,4.32
2023-04-29T17:52:21.078Z,1.92
2023-04-29T17:57:22.600Z,9.70
2023-04-29T18:02:24.090Z,3.80
2023-04-29T18:07:25.923Z,4.53
2023-04-29T18:12:27.486Z,2.50
2023-04-29T18:17:29.053Z,6.63
2023-04-29T18:22:30.865Z,5.38
2023-04-29T18:27:32.357Z,3.05
2023-04-29T18:32:34.224Z,2.88
2023-04-29T18:37:38.844Z,3.35
2023-04-29T18:42:40.567Z,35.92
2023-04-29T18:47:42.405Z,5.22
2023-04-29T18:52:43.915Z,3.83
2023-04-29T18:57:45.922Z,4.88
2023-04-29T19:02:47.479Z,4.45
2023-04-29T19:07:49.747Z,4.82
2023-04-29T19:12:57.290Z,5.13
2023-04-29T19:17:58.933Z,6.68
2023-04-29T19:23:01.094Z,7.03
2023-04-29T19:28:02.628Z,3.72
2023-04-29T19:33:04.428Z,3.15
2023-04-29T19:38:05.962Z,5.90
2023-04-29T19:43:10.026Z,5.00
2023-04-29T19:48:14.502Z,3.58
2023-04-29T19:53:16.098Z,5.38
2023-04-29T19:58:18.548Z,10.18
2023-04-29T20:03:20.264Z,4.28
2023-04-29T20:08:21.904Z,20.25
2023-04-29T20:13:23.356Z,12.40
2023-04-29T20:18:25.173Z,7.00
2023-04-29T20:23:26.766Z,7.07
2023-04-29T20:28:28.202Z,6.88
2023-04-29T20:33:29.718Z,6.55
2023-04-29T20:38:35.335Z,7.53
2023-04-29T20:43:39.196Z,9.00
2023-04-29T20:48:40.968Z,6.70
2023-04-29T20:53:42.496Z,9.98
2023-04-29T20:58:43.958Z,10.90
2023-04-29T21:03:45.775Z,10.75
2023-04-29T21:08:47.290Z,10.57
2023-04-29T21:13:51.013Z,7.57
2023-04-29T21:18:52.531Z,10.57
2023-04-29T21:23:54.023Z,9.15
2023-04-29T21:28:57.261Z,12.68
2023-04-29T21:33:59.391Z,9.60
2023-04-29T21:39:00.950Z,7.80
2023-04-29T21:44:02.867Z,8.40
2023-04-29T21:49:07.865Z,8.00
2023-04-29T21:54:11.089Z,11.55
2023-04-29T21:59:19.723Z,12.18
2023-04-29T22:04:21.380Z,9.52
2023-04-29T22:09:23.175Z,8.13
2023-04-29T22:14:24.915Z,8.50
2023-04-29T22:19:30.187Z,9.43
2023-04-29T22:24:34.585Z,7.75
2023-04-29T22:29:36.535Z,13.95
2023-04-29T22:34:38.121Z,14.55
2023-04-29T22:39:39.735Z,7.55
2023-04-29T22:44:42.915Z,10.18
2023-04-29T22:49:44.483Z,8.75
2023-04-29T22:54:46.293Z,7.13
2023-04-29T22:59:47.751Z,10.63
2023-04-29T23:04:49.331Z,9.80
2023-04-29T23:09:51.653Z,7.85
2023-04-29T23:14:53.523Z,12.00
2023-04-29T23:19:56.258Z,7.90
2023-04-29T23:24:58.510Z,7.70
2023-04-29T23:30:04.555Z,9.63
2023-04-29T23:35:06.665Z,12.15
2023-04-29T23:40:10.060Z,8.88
2023-04-29T23:45:11.696Z,7.75
2023-04-29T23:50:13.183Z,10.30
2023-04-29T23:55:14.625Z,9.27
